Storm Events Database

Event Details

Event Hail
Magnitude 0.88 in.
State KENTUCKY
County/Area CHRISTIAN
WFO PAH
Report Source Trained Spotter
NCDC Data Source CSV
Begin Date 2007-04-03 17:41:00.0 CST-6
Begin Location 3N HOPKINSVILLE
Begin Lat/Lon 36.89/-87.48
End Date 2007-04-03 17:41:00.0 CST-6
End Location 4E KELLY
End Lat/Lon 36.97/-87.4
Deaths Direct/Indirect 0/0 (fatality details below, when available...)
Injuries Direct/Indirect 0/0
Property Damage 0.00K
Crop Damage 0.00K
Episode Narrative Numerous thunderstorms preceded a strong cold front that moved southeast across the region. The storms organized into lines along outflow boundaries preceding the initial storms. Hail was the primary severe weather type, and there was some isolated wind damage.
Event Narrative


     ‚Äč



All events for this episode:

Location County/Zone St. Date Time T.Z. Type Mag Dth Inj PrD CrD
Totals: 0 0 34.00K 0.00K
MORGANFIELD UNION CO. KY 04/03/2007 16:22 CST-6 Hail 0.75 in. 0 0 0.00K 0.00K
HENDERSON HENDERSON CO. KY 04/03/2007 16:29 CST-6 Hail 0.88 in. 0 0 0.00K 0.00K
SEBREE WEBSTER CO. KY 04/03/2007 16:41 CST-6 Hail 1.50 in. 0 0 0.00K 0.00K
TOLU CRITTENDEN CO. KY 04/03/2007 16:50 CST-6 Hail 1.00 in. 0 0 0.00K 0.00K
BEULAH HOPKINS CO. KY 04/03/2007 16:59 CST-6 Hail 1.00 in. 0 0 0.00K 0.00K
GAGE BALLARD CO. KY 04/03/2007 17:05 CST-6 Hail 1.00 in. 0 0 0.00K 0.00K
MADISONVILLE HOPKINS CO. KY 04/03/2007 17:08 CST-6 Hail 0.88 in. 0 0 0.00K 0.00K
REIDLAND MCCRACKEN CO. KY 04/03/2007 17:08 CST-6 Hail 0.75 in. 0 0 0.00K 0.00K
BENTON MARSHALL CO. KY 04/03/2007 17:09 CST-6 Hail 0.75 in. 0 0 0.00K 0.00K
BERKELEY CARLISLE CO. KY 04/03/2007 17:10 CST-6 Thunderstorm Wind 52 kts. EG 0 0 10.00K 0.00K
HARDMONEY MCCRACKEN CO. KY 04/03/2007 17:10 CST-6 Thunderstorm Wind 52 kts. EG 0 0 4.00K 0.00K
BERKELEY CARLISLE CO. KY 04/03/2007 17:12 CST-6 Hail 1.00 in. 0 0 0.00K 0.00K
HARDIN MARSHALL CO. KY 04/03/2007 17:14 CST-6 Hail 1.00 in. 0 0 0.00K 0.00K
LEDBETTER LIVINGSTON CO. KY 04/03/2007 17:15 CST-6 Hail 0.75 in. 0 0 0.00K 0.00K
CLINTON HICKMAN CO. KY 04/03/2007 17:20 CST-6 Thunderstorm Wind 52 kts. EG 0 0 7.00K 0.00K
DEXTER CALLOWAY CO. KY 04/03/2007 17:28 CST-6 Hail 1.75 in. 0 0 0.00K 0.00K
FANCY FARM GRAVES CO. KY 04/03/2007 17:31 CST-6 Hail 0.75 in. 0 0 0.00K 0.00K
BREMEN MUHLENBERG CO. KY 04/03/2007 17:32 CST-6 Hail 0.75 in. 0 0 0.00K 0.00K
HOPKINSVILLE CHRISTIAN CO. KY 04/03/2007 17:41 CST-6 Hail 0.88 in. 0 0 0.00K 0.00K
DRAKESBORO MUHLENBERG CO. KY 04/03/2007 17:43 CST-6 Hail 0.75 in. 0 0 0.00K 0.00K
CANTON TRIGG CO. KY 04/03/2007 17:45 CST-6 Thunderstorm Wind 61 kts. EG 0 0 7.00K 0.00K
ELVA MARSHALL CO. KY 04/03/2007 17:46 CST-6 Thunderstorm Wind 52 kts. EG 0 0 6.00K 0.00K
ALLEGRE TODD CO. KY 04/03/2007 18:03 CST-6 Hail 0.75 in. 0 0 0.00K 0.00K
SHARON GROVE TODD CO. KY 04/03/2007 18:10 CST-6 Hail 0.88 in. 0 0 0.00K 0.00K
CADIZ TRIGG CO. KY 04/03/2007 18:15 CST-6 Hail 0.88 in. 0 0 0.00K 0.00K
GRACEY CHRISTIAN CO. KY 04/03/2007 18:20 CST-6 Hail 0.88 in. 0 0 0.00K 0.00K
PEMBROKE CHRISTIAN CO. KY 04/03/2007 18:20 CST-6 Hail 0.88 in. 0 0 0.00K 0.00K
SHARON GROVE TODD CO. KY 04/03/2007 18:30 CST-6 Thunderstorm Wind 52 kts. EG 0 0 0.00K 0.00K
MADISONVILLE HOPKINS CO. KY 04/03/2007 18:45 CST-6 Flash Flood 0 0 0.00K 0.00K
PRINCETON CALDWELL CO. KY 04/03/2007 19:15 CST-6 Flash Flood 0 0 0.00K 0.00K
Totals: 0 0 34.00K 0.00K